CheckWX is a tool to help pilots better visualize weather data.  It is not intended as a substitute for an official pre-flight weather briefing.

16:12:56 UTC

KLGU METAR
Logan-Cache Airport
Logan, Utah, USA
Current

22 mins ago

KLGU 221551Z AUTO 35004KT 10SM CLR 26/10 A3015 RMK AO2 SLP151 T02560100
Observed
Jul-22 @ 15:51 UTC
Wind
  • 350° at 4 KTS
Visibility
10 SM
Flight Rules
VFR
Cloud Levels
  • Clear skies
Temperature
26°C / 79°F
Dewpoint
10°C / 50°F
Humidity
37%
Altimeter
30.15" Hg
Pressure
1021.02 hPa
Previous

1 hour ago

KLGU 221451Z AUTO 29004KT 10SM CLR 23/11 A3015 RMK AO2 SLP147 T02280106 51009
Observed
Jul-22 @ 14:51 UTC
Wind
  • 290° at 4 KTS
Visibility
10 SM
Flight Rules
VFR
Cloud Levels
  • Clear skies
Temperature
23°C / 73°F
Dewpoint
11°C / 52°F
Humidity
47%
Altimeter
30.15" Hg
Pressure
1021.02 hPa
Previous

2 hours ago

KLGU 221351Z AUTO 03003KT 10SM CLR 17/11 A3014 RMK AO2 SLP151 T01720111
Observed
Jul-22 @ 13:51 UTC
Wind
  • 030° at 3 KTS
Visibility
10 SM
Flight Rules
VFR
Cloud Levels
  • Clear skies
Temperature
17°C / 63°F
Dewpoint
11°C / 52°F
Humidity
68%
Altimeter
30.14" Hg
Pressure
1020.62 hPa